Time;durP1;ratioP1;P1;durP2;ratioP2;P2;SDS_P1;SDS_P2;PMS_P1;PMS_P2;Temp;Humidity;BMP_temperature;BMP_pressure;BME280_temperature;BME280_humidity;BME280_pressure;Samples;Min_cycle;Max_cycle;Signal;HPM_P1;HPM_P2
2023/07/22 00:01:14;;;;;;;18.02;10.25;;;;;;;14.79;75.61;101296.56;5066462;28;20032;-65
2023/07/22 00:03:39;;;;;;;17.13;10.07;;;;;;;14.76;76.04;101294.09;5064942;28;20044;-65
2023/07/22 00:06:06;;;;;;;17.65;10.05;;;;;;;14.73;75.65;101295.19;5047629;28;20048;-65
2023/07/22 00:08:32;;;;;;;17.83;9.65;;;;;;;14.72;75.84;101296.19;5066581;28;20500;-69
2023/07/22 00:10:58;;;;;;;18.45;10.02;;;;;;;14.69;75.90;101296.47;5051824;28;20476;-65
2023/07/22 00:13:23;;;;;;;16.70;10.00;;;;;;;14.67;76.28;101300.31;5052812;28;20036;-65
2023/07/22 00:15:50;;;;;;;19.77;10.52;;;;;;;14.66;76.30;101293.09;5064724;28;20048;-67
2023/07/22 00:18:16;;;;;;;19.95;10.25;;;;;;;14.64;76.20;101292.34;5065455;28;20041;-65
2023/07/22 00:20:41;;;;;;;18.48;9.43;;;;;;;14.63;77.15;101296.09;5065566;28;20436;-65
2023/07/22 00:23:07;;;;;;;18.60;10.68;;;;;;;14.62;76.54;101289.75;5046348;28;20040;-67
2023/07/22 00:25:32;;;;;;;17.25;10.55;;;;;;;14.62;76.57;101291.63;5065553;28;20111;-68
2023/07/22 00:27:57;;;;;;;17.05;9.82;;;;;;;14.61;76.82;101290.75;5066921;28;20123;-65
2023/07/22 00:30:22;;;;;;;21.10;10.75;;;;;;;14.63;76.31;101293.34;5066212;28;20467;-65
2023/07/22 00:32:48;;;;;;;21.08;10.38;;;;;;;14.62;77.11;101289.75;5064777;28;20032;-65
2023/07/22 00:35:13;;;;;;;17.23;9.77;;;;;;;14.63;76.69;101294.22;5063496;28;20032;-64
2023/07/22 00:37:39;;;;;;;20.48;11.20;;;;;;;14.65;77.26;101297.72;5063725;28;20112;-65
2023/07/22 00:40:06;;;;;;;17.80;9.95;;;;;;;14.67;76.77;101292.97;5030632;28;20035;-65
2023/07/22 00:42:31;;;;;;;22.50;10.70;;;;;;;14.68;76.34;101291.97;5066683;28;20162;-65
2023/07/22 00:44:57;;;;;;;16.25;9.63;;;;;;;14.68;77.42;101294.69;5065562;28;20096;-65
2023/07/22 00:47:22;;;;;;;18.08;10.57;;;;;;;14.68;77.40;101291.09;5065805;28;20119;-68
2023/07/22 00:49:49;;;;;;;18.83;10.88;;;;;;;14.66;77.98;101285.75;5064656;28;20094;-65
2023/07/22 00:52:14;;;;;;;18.13;10.43;;;;;;;14.65;77.90;101285.91;5065375;28;20036;-66
2023/07/22 00:54:40;;;;;;;18.15;10.02;;;;;;;14.63;77.65;101285.13;5065030;28;20066;-65
2023/07/22 00:57:06;;;;;;;16.20;9.32;;;;;;;14.64;77.05;101276.81;5066020;28;20024;-68
2023/07/22 00:59:32;;;;;;;16.45;9.60;;;;;;;14.64;77.53;101284.13;5066534;28;20147;-66
2023/07/22 01:01:57;;;;;;;17.20;9.40;;;;;;;14.62;77.79;101276.06;5065290;28;20555;-65
2023/07/22 01:04:24;;;;;;;15.85;9.85;;;;;;;14.61;76.96;101281.66;5064861;28;20558;-65
2023/07/22 01:06:52;;;;;;;20.17;9.23;;;;;;;14.60;77.26;101286.28;5065076;28;20060;-65
2023/07/22 01:09:18;;;;;;;17.08;9.80;;;;;;;14.62;77.66;101277.91;5064685;28;20033;-65
2023/07/22 01:11:43;;;;;;;16.35;10.02;;;;;;;14.60;77.92;101278.06;5066340;28;20502;-65
2023/07/22 01:14:09;;;;;;;16.02;9.35;;;;;;;14.57;78.32;101282.91;5047339;28;20033;-65
2023/07/22 01:16:35;;;;;;;18.80;9.70;;;;;;;14.55;77.95;101283.03;5065481;28;20044;-65
2023/07/22 01:19:00;;;;;;;16.55;9.10;;;;;;;14.54;78.76;101271.19;5064457;28;20554;-65
2023/07/22 01:21:26;;;;;;;18.67;10.52;;;;;;;14.52;78.68;101272.34;5064240;28;20514;-65
2023/07/22 01:23:52;;;;;;;17.02;9.07;;;;;;;14.50;78.64;101264.25;5064210;28;20123;-65
2023/07/22 01:26:18;;;;;;;17.55;9.35;;;;;;;14.47;78.47;101258.13;5050611;28;20104;-65
2023/07/22 01:28:43;;;;;;;18.17;9.40;;;;;;;14.46;80.45;101262.72;5069094;28;20041;-65
2023/07/22 01:31:09;;;;;;;19.38;10.52;;;;;;;14.46;80.11;101261.88;5067537;28;20197;-65
2023/07/22 01:33:34;;;;;;;16.25;9.77;;;;;;;14.45;79.87;101269.19;5067616;28;20094;-68
2023/07/22 01:36:00;;;;;;;20.45;9.98;;;;;;;14.42;80.88;101269.44;5069017;28;20038;-65
2023/07/22 01:38:25;;;;;;;20.05;10.90;;;;;;;14.40;80.22;101265.09;5068451;28;20056;-64
2023/07/22 01:40:51;;;;;;;19.92;10.32;;;;;;;14.39;79.77;101266.09;5068253;28;20059;-65
2023/07/22 01:43:16;;;;;;;20.60;10.18;;;;;;;14.37;80.14;101259.88;5068864;28;20111;-65
2023/07/22 01:45:42;;;;;;;18.35;9.77;;;;;;;14.37;80.25;101255.28;5068944;28;20036;-65
2023/07/22 01:48:08;;;;;;;20.23;10.27;;;;;;;14.36;80.45;101250.81;5067579;28;20119;-65
2023/07/22 01:50:33;;;;;;;19.92;10.32;;;;;;;14.37;80.57;101248.94;5068747;28;20029;-66
2023/07/22 01:52:59;;;;;;;18.08;9.30;;;;;;;14.38;80.40;101251.53;5050798;28;20049;-65
2023/07/22 01:55:24;;;;;;;19.85;10.55;;;;;;;14.38;81.14;101247.94;5050390;28;20028;-65
2023/07/22 01:57:49;;;;;;;20.55;10.30;;;;;;;14.37;80.29;101248.94;5066689;28;20033;-66
2023/07/22 02:00:15;;;;;;;16.98;10.52;;;;;;;14.37;80.18;101254.41;5034140;28;20098;-65
2023/07/22 02:02:43;;;;;;;19.83;11.15;;;;;;;14.30;81.17;101251.28;5067503;28;20044;-66
2023/07/22 02:05:10;;;;;;;22.23;10.45;;;;;;;14.30;80.88;101251.28;5068044;28;20127;-66
2023/07/22 02:07:35;;;;;;;18.00;10.05;;;;;;;14.27;81.27;101255.16;5049532;28;20044;-64
2023/07/22 02:10:01;;;;;;;18.35;10.07;;;;;;;14.27;80.50;101248.81;5066918;28;20106;-66
2023/07/22 02:12:26;;;;;;;20.65;11.35;;;;;;;14.26;81.15;101247.91;5050461;28;20469;-66
2023/07/22 02:14:52;;;;;;;19.48;10.65;;;;;;;14.23;81.68;101242.72;5068143;28;20521;-65
2023/07/22 02:17:17;;;;;;;20.20;10.77;;;;;;;14.23;80.48;101239.97;5066696;28;20041;-64
2023/07/22 02:19:43;;;;;;;21.55;11.25;;;;;;;14.24;80.24;101236.25;5065488;28;20039;-66
2023/07/22 02:22:09;;;;;;;16.92;10.38;;;;;;;14.24;80.39;101243.59;5049497;28;20040;-67
2023/07/22 02:24:34;;;;;;;21.85;11.05;;;;;;;14.23;81.40;101236.38;5049252;28;20100;-65
2023/07/22 02:27:00;;;;;;;19.45;11.00;;;;;;;14.21;81.10;101238.34;5067329;28;20037;-65
2023/07/22 02:29:25;;;;;;;18.13;10.60;;;;;;;14.18;80.67;101236.75;5067956;28;20438;-65
2023/07/22 02:31:51;;;;;;;24.33;11.95;;;;;;;14.20;80.03;101234.75;5067831;28;20422;-65
2023/07/22 02:34:16;;;;;;;18.48;10.95;;;;;;;14.18;80.23;101241.34;5066065;28;20040;-67
2023/07/22 02:36:42;;;;;;;19.90;10.68;;;;;;;14.14;80.84;101234.38;5066452;28;20125;-66
2023/07/22 02:39:09;;;;;;;21.17;10.70;;;;;;;14.13;81.51;101233.53;5067846;28;20020;-65
2023/07/22 02:41:36;;;;;;;21.55;11.55;;;;;;;14.09;81.84;101233.91;5067370;28;20369;-65
2023/07/22 02:44:03;;;;;;;18.80;11.07;;;;;;;14.02;82.01;101228.91;5068020;28;20174;-65
2023/07/22 02:46:28;;;;;;;16.60;9.40;;;;;;;13.96;81.42;101232.13;5066552;28;20107;-65
2023/07/22 02:48:54;;;;;;;20.75;11.13;;;;;;;13.88;82.61;101226.41;5040666;28;20047;-66
2023/07/22 02:51:20;;;;;;;22.30;10.75;;;;;;;13.79;81.75;101233.47;5066998;28;20046;-65
2023/07/22 02:53:47;;;;;;;20.77;10.85;;;;;;;13.76;82.27;101231.00;5066045;28;20055;-66
2023/07/22 02:56:13;;;;;;;18.10;11.05;;;;;;;13.69;82.79;101232.47;5048978;28;20111;-66
2023/07/22 02:58:38;;;;;;;17.75;10.50;;;;;;;13.61;82.09;101229.47;5067439;28;20036;-65
2023/07/22 03:01:05;;;;;;;22.13;10.93;;;;;;;13.56;83.12;101233.56;5067256;28;20144;-65
2023/07/22 03:03:32;;;;;;;22.40;11.43;;;;;;;13.50;82.64;101229.47;5065285;28;20040;-66
2023/07/22 03:05:59;;;;;;;22.80;10.85;;;;;;;13.47;82.49;101232.41;5066574;28;20052;-65
2023/07/22 03:08:25;;;;;;;20.85;11.10;;;;;;;13.44;82.84;101229.94;5048792;28;20056;-65
2023/07/22 03:10:50;;;;;;;19.30;10.55;;;;;;;13.36;82.73;101238.72;5066824;28;20046;-69
2023/07/22 03:13:16;;;;;;;20.02;10.43;;;;;;;13.29;83.59;101232.03;5067118;28;20040;-65
2023/07/22 03:15:41;;;;;;;21.98;10.90;;;;;;;13.21;83.84;101234.44;5065964;28;20032;-65
2023/07/22 03:18:07;;;;;;;19.13;11.10;;;;;;;13.16;84.38;101242.97;5064431;28;20480;-66
2023/07/22 03:20:32;;;;;;;22.30;11.52;;;;;;;13.13;83.93;101245.06;5066541;28;20041;-68
2023/07/22 03:22:58;;;;;;;19.80;10.55;;;;;;;13.11;84.37;101249.81;5048343;28;20436;-67
2023/07/22 03:25:23;;;;;;;22.15;11.02;;;;;;;13.08;84.30;101253.63;5066877;28;20127;-66
2023/07/22 03:27:49;;;;;;;21.65;11.55;;;;;;;13.04;84.65;101252.09;5063974;28;20762;-66
2023/07/22 03:30:17;;;;;;;21.70;11.55;;;;;;;12.99;84.12;101251.59;5065006;28;20032;-65
2023/07/22 03:32:43;;;;;;;21.42;11.30;;;;;;;12.98;85.27;101255.31;5066329;28;20033;-67
2023/07/22 03:35:10;;;;;;;19.50;10.27;;;;;;;12.96;84.26;101252.72;5040885;28;20032;-66
2023/07/22 03:37:36;;;;;;;17.42;9.93;;;;;;;12.94;84.06;101251.94;5065843;28;20040;-65
2023/07/22 03:40:05;;;;;;;17.70;10.13;;;;;;;12.92;84.08;101253.06;5067111;28;20024;-65
2023/07/22 03:42:33;;;;;;;17.95;9.63;;;;;;;12.89;84.89;101251.41;5067047;28;20036;-65
2023/07/22 03:44:59;;;;;;;24.77;10.45;;;;;;;12.83;86.31;101243.69;5067397;28;20180;-65
2023/07/22 03:47:24;;;;;;;19.48;10.90;;;;;;;12.81;85.90;101247.53;5065314;28;20103;-66
2023/07/22 03:49:50;;;;;;;20.95;10.55;;;;;;;12.79;84.69;101252.25;5064889;28;20019;-66
2023/07/22 03:52:18;;;;;;;18.20;10.38;;;;;;;12.76;84.88;101253.31;5047948;28;20059;-66
2023/07/22 03:54:44;;;;;;;20.98;10.63;;;;;;;12.76;85.72;101245.13;5066073;28;20532;-65
2023/07/22 03:57:09;;;;;;;19.60;10.63;;;;;;;12.72;85.97;101249.09;5048392;28;20020;-65
2023/07/22 03:59:35;;;;;;;19.98;11.13;;;;;;;12.70;86.72;101253.78;5066674;28;20119;-66
2023/07/22 04:02:00;;;;;;;21.58;11.88;;;;;;;12.70;86.15;101253.78;5047896;28;20093;-65
2023/07/22 04:04:26;;;;;;;30.58;11.77;;;;;;;12.68;87.62;101248.47;5052096;28;20028;-66
2023/07/22 04:06:51;;;;;;;20.48;10.55;;;;;;;12.69;87.05;101255.66;5065586;28;20270;-66
2023/07/22 04:09:16;;;;;;;22.25;11.73;;;;;;;12.69;87.06;101246.59;5065459;28;20538;-65
2023/07/22 04:11:42;;;;;;;19.58;9.55;;;;;;;12.69;86.52;101247.47;5048773;28;20380;-65
2023/07/22 04:14:07;;;;;;;21.15;10.98;;;;;;;12.71;87.15;101242.75;5066651;28;20407;-65
2023/07/22 04:16:32;;;;;;;19.00;11.05;;;;;;;12.73;86.04;101242.66;5047545;28;20033;-67
2023/07/22 04:18:58;;;;;;;19.38;10.23;;;;;;;12.74;86.33;101244.41;5065497;28;20218;-65
2023/07/22 04:21:23;;;;;;;23.42;11.48;;;;;;;12.72;87.45;101251.81;5064243;28;20016;-65
2023/07/22 04:23:49;;;;;;;24.77;9.73;;;;;;;12.71;86.15;101250.94;5066316;28;20484;-65
2023/07/22 04:26:14;;;;;;;19.08;10.32;;;;;;;12.73;86.20;101257.19;5065372;28;20127;-65
2023/07/22 04:28:39;;;;;;;19.77;10.93;;;;;;;12.71;87.40;101247.34;5064661;28;20041;-65
2023/07/22 04:31:05;;;;;;;19.38;10.70;;;;;;;12.72;87.79;101251.81;5066247;28;20087;-66
2023/07/22 04:33:34;;;;;;;19.92;10.45;;;;;;;12.71;86.60;101255.53;5062594;28;20566;-65
2023/07/22 04:36:00;;;;;;;19.35;9.98;;;;;;;12.71;87.14;101261.84;5047739;28;20128;-65
2023/07/22 04:38:26;;;;;;;20.40;10.48;;;;;;;12.74;87.45;101252.59;5047614;28;20039;-65
2023/07/22 04:40:51;;;;;;;19.30;9.75;;;;;;;12.76;87.56;101256.06;5065677;28;20127;-65
2023/07/22 04:43:17;;;;;;;22.17;9.90;;;;;;;12.75;86.83;101263.38;5066259;28;20533;-66
2023/07/22 04:45:47;;;;;;;21.60;11.63;;;;;;;12.84;87.52;101264.56;5066070;28;20520;-65
2023/07/22 04:48:19;;;;;;;23.85;11.13;;;;;;;12.89;87.55;101261.47;5065093;28;20111;-66
2023/07/22 04:50:45;;;;;;;20.85;10.55;;;;;;;12.92;87.75;101255.78;5065392;28;20434;-64
2023/07/22 04:53:12;;;;;;;21.77;10.82;;;;;;;12.95;87.65;101253.69;5047349;28;20040;-65
2023/07/22 04:55:38;;;;;;;21.08;10.63;;;;;;;12.99;88.04;101263.38;5066080;28;20043;-65
2023/07/22 04:58:04;;;;;;;21.13;11.00;;;;;;;13.08;87.05;101256.34;5065507;28;20496;-65
2023/07/22 05:00:30;;;;;;;16.45;8.88;;;;;;;13.16;86.65;101269.44;5069551;28;20036;-65
2023/07/22 05:02:56;;;;;;;21.33;10.07;;;;;;;13.28;87.65;101260.31;5050542;28;20500;-64
2023/07/22 05:05:21;;;;;;;19.80;9.98;;;;;;;13.37;85.76;101261.47;5069315;28;20048;-66
2023/07/22 05:07:49;;;;;;;22.48;10.93;;;;;;;13.46;87.12;101263.47;5067880;28;20044;-65
2023/07/22 05:10:14;;;;;;;26.13;10.45;;;;;;;13.51;86.77;101269.47;5069151;28;20098;-66
2023/07/22 05:12:41;;;;;;;21.02;10.85;;;;;;;13.63;86.33;101276.72;5068292;28;20456;-66
2023/07/22 05:15:07;;;;;;;18.17;10.48;;;;;;;13.68;86.16;101274.50;5069876;28;20148;-65
2023/07/22 05:17:33;;;;;;;19.70;10.57;;;;;;;13.78;86.07;101272.75;5069300;28;20479;-66
2023/07/22 05:19:58;;;;;;;22.05;10.43;;;;;;;13.85;86.67;101272.25;5068599;28;20035;-65
2023/07/22 05:22:24;;;;;;;20.00;10.07;;;;;;;13.90;85.42;101272.81;5068786;28;20403;-65
2023/07/22 05:24:49;;;;;;;17.88;10.38;;;;;;;13.97;85.55;101274.03;5068947;28;20048;-64
2023/07/22 05:27:16;;;;;;;20.13;11.48;;;;;;;13.99;85.23;101267.47;5068837;28;20531;-65
2023/07/22 05:29:41;;;;;;;20.08;10.20;;;;;;;14.03;84.55;101268.97;5051109;28;20044;-65
2023/07/22 05:32:07;;;;;;;24.05;11.40;;;;;;;14.03;84.94;101271.69;5068176;28;20051;-65
2023/07/22 05:34:32;;;;;;;20.75;10.70;;;;;;;14.02;84.89;101264.47;5068047;28;20036;-68
2023/07/22 05:36:57;;;;;;;20.27;10.98;;;;;;;14.09;84.92;101272.19;5050822;28;20040;-64
2023/07/22 05:39:23;;;;;;;18.83;10.45;;;;;;;14.15;85.79;101271.69;5068356;28;20028;-64
2023/07/22 05:41:48;;;;;;;24.88;10.30;;;;;;;14.29;85.32;101268.72;5069103;28;20526;-66
2023/07/22 05:44:14;;;;;;;21.05;11.52;;;;;;;14.45;84.92;101269.19;5068908;28;20555;-65
2023/07/22 05:46:39;;;;;;;20.67;10.43;;;;;;;14.57;84.09;101266.47;5068288;28;20119;-66
2023/07/22 05:49:05;;;;;;;18.95;10.27;;;;;;;14.63;83.86;101264.09;5067617;28;20024;-66
2023/07/22 05:51:30;;;;;;;21.23;9.07;;;;;;;14.69;83.56;101276.44;5050776;28;20049;-65
2023/07/22 05:53:56;;;;;;;21.92;10.68;;;;;;;14.71;83.25;101272.56;5067906;28;20123;-65
2023/07/22 05:56:21;;;;;;;20.92;10.35;;;;;;;14.75;83.40;101257.59;5068514;28;20143;-65
2023/07/22 05:58:46;;;;;;;25.80;11.43;;;;;;;14.77;82.88;101257.47;5068518;28;20325;-65
2023/07/22 06:01:12;;;;;;;22.60;10.50;;;;;;;14.85;82.55;101267.78;5067865;28;20141;-65
2023/07/22 06:03:37;;;;;;;21.33;10.32;;;;;;;14.90;82.21;101263.66;5067992;28;20106;-66
2023/07/22 06:06:04;;;;;;;17.73;10.18;;;;;;;14.95;82.58;101264.16;5049352;28;20040;-67
2023/07/22 06:08:29;;;;;;;23.95;11.25;;;;;;;15.09;83.17;101267.59;5068961;28;20063;-66
2023/07/22 06:10:56;;;;;;;21.83;10.90;;;;;;;15.24;82.27;101263.53;5066663;28;20445;-65
2023/07/22 06:13:21;;;;;;;21.88;11.02;;;;;;;15.38;82.27;101259.63;5068428;28;20032;-66
2023/07/22 06:15:46;;;;;;;20.85;11.68;;;;;;;15.53;81.73;101255.56;5050655;28;20043;-65
2023/07/22 06:18:12;;;;;;;19.10;10.55;;;;;;;15.63;81.10;101256.50;5066854;28;20060;-65
2023/07/22 06:20:38;;;;;;;24.75;11.55;;;;;;;15.74;83.14;101259.19;5067656;28;20082;-65
2023/07/22 06:23:04;;;;;;;20.90;11.77;;;;;;;15.81;81.27;101251.31;5067817;28;20046;-65
2023/07/22 06:25:29;;;;;;;20.52;10.70;;;;;;;15.87;80.54;101258.13;5068153;28;20037;-66
2023/07/22 06:27:55;;;;;;;24.45;12.02;;;;;;;16.00;79.87;101253.31;5068215;28;20040;-64
2023/07/22 06:30:20;;;;;;;18.85;10.57;;;;;;;16.12;79.75;101254.06;5068581;28;20502;-65
2023/07/22 06:32:45;;;;;;;21.50;11.27;;;;;;;16.24;79.56;101255.72;5060074;28;20161;-66
2023/07/22 06:35:11;;;;;;;19.13;10.00;;;;;;;16.29;79.71;101250.69;5067425;28;20043;-66
2023/07/22 06:37:36;;;;;;;23.75;11.70;;;;;;;16.32;79.54;101253.16;5065945;28;20044;-65
2023/07/22 06:40:03;;;;;;;24.77;10.48;;;;;;;16.32;78.99;101243.03;5067035;28;20496;-68
2023/07/22 06:42:29;;;;;;;25.17;11.80;;;;;;;16.37;79.16;101241.72;5068511;28;20044;-65
2023/07/22 06:44:55;;;;;;;22.63;11.07;;;;;;;16.35;79.92;101238.28;5067494;28;20424;-66
2023/07/22 06:47:20;;;;;;;25.17;12.02;;;;;;;16.30;79.40;101234.06;5067753;28;20032;-66
2023/07/22 06:49:45;;;;;;;22.63;11.40;;;;;;;16.36;80.02;101235.38;5066474;28;20077;-67
2023/07/22 06:52:11;;;;;;;23.10;12.73;;;;;;;16.36;79.21;101231.75;5067101;28;20020;-66
2023/07/22 06:54:36;;;;;;;23.83;12.38;;;;;;;16.42;79.60;101228.47;5066851;28;20040;-66
2023/07/22 06:57:02;;;;;;;23.35;12.15;;;;;;;16.55;79.37;101231.81;5050189;28;20024;-65
2023/07/22 06:59:28;;;;;;;21.95;11.68;;;;;;;16.74;78.92;101231.03;5067695;28;20117;-66
2023/07/22 07:01:53;;;;;;;28.08;12.35;;;;;;;16.87;78.84;101223.38;5067676;28;20600;-66
2023/07/22 07:04:19;;;;;;;25.30;12.07;;;;;;;17.04;78.90;101236.44;5066269;28;20094;-66
2023/07/22 07:06:45;;;;;;;23.20;12.02;;;;;;;17.22;79.07;101233.84;5066718;28;20071;-65
2023/07/22 07:09:11;;;;;;;22.65;11.88;;;;;;;17.41;78.94;101229.34;5049090;28;20041;-67
2023/07/22 07:11:36;;;;;;;22.05;12.38;;;;;;;17.45;77.99;101228.91;5067131;28;20105;-66
2023/07/22 07:14:03;;;;;;;25.40;12.45;;;;;;;17.50;77.58;101234.84;5067698;28;20041;-66
2023/07/22 07:16:31;;;;;;;23.15;12.52;;;;;;;17.49;78.72;101235.00;5067831;28;20572;-65
2023/07/22 07:18:57;;;;;;;21.55;11.98;;;;;;;17.50;76.88;101237.59;5065820;28;20032;-66
2023/07/22 07:21:23;;;;;;;22.40;12.27;;;;;;;17.48;77.26;101234.09;5066448;28;20044;-66
2023/07/22 07:23:50;;;;;;;21.45;10.93;;;;;;;17.61;76.55;101236.56;5066214;28;20017;-66
2023/07/22 07:26:16;;;;;;;18.98;10.90;;;;;;;17.69;77.15;101233.94;5045624;28;20032;-66
2023/07/22 07:28:42;;;;;;;24.73;12.45;;;;;;;17.68;76.98;101236.84;5065927;28;20036;-66
2023/07/22 07:31:07;;;;;;;21.13;11.23;;;;;;;17.75;76.96;101227.88;5037384;28;20025;-68
2023/07/22 07:33:33;;;;;;;23.95;11.50;;;;;;;17.82;75.75;101233.66;5065830;28;20090;-69
2023/07/22 07:35:58;;;;;;;22.88;12.45;;;;;;;17.91;75.28;101237.41;5066220;28;20547;-67
2023/07/22 07:38:24;;;;;;;23.98;12.02;;;;;;;17.97;76.02;101228.53;5066006;28;20494;-65
2023/07/22 07:40:54;;;;;;;20.10;10.55;;;;;;;18.00;75.85;101237.38;5066399;28;20043;-68
2023/07/22 07:43:19;;;;;;;18.42;10.98;;;;;;;18.03;75.88;101231.56;5066021;28;20040;-66
2023/07/22 07:45:44;;;;;;;24.00;12.07;;;;;;;18.12;75.14;101226.16;5052571;28;20419;-67
2023/07/22 07:48:10;;;;;;;24.67;11.27;;;;;;;18.23;74.58;101225.97;5049571;28;20033;-65
2023/07/22 07:50:35;;;;;;;17.17;11.00;;;;;;;18.36;75.50;101237.50;5066225;28;20115;-68
2023/07/22 07:53:00;;;;;;;21.38;10.30;;;;;;;18.56;75.17;101233.66;5066839;28;20071;-65
2023/07/22 07:55:26;;;;;;;20.40;10.70;;;;;;;18.76;74.74;101239.09;5065848;28;20151;-67
2023/07/22 07:57:51;;;;;;;23.35;11.82;;;;;;;18.95;72.99;101238.94;5066527;28;20037;-66
2023/07/22 08:00:17;;;;;;;20.65;10.63;;;;;;;19.10;73.11;101234.63;5066767;28;20085;-66
2023/07/22 08:02:42;;;;;;;20.42;9.85;;;;;;;19.20;73.18;101241.94;5065878;28;20026;-68
2023/07/22 08:05:08;;;;;;;18.33;9.90;;;;;;;19.26;71.99;101235.81;5065618;28;20040;-67
2023/07/22 08:07:33;;;;;;;19.02;10.18;;;;;;;19.31;71.76;101234.31;5066215;28;20048;-66
2023/07/22 08:09:59;;;;;;;19.80;9.85;;;;;;;19.46;72.27;101242.03;5066526;28;20078;-69
2023/07/22 08:12:24;;;;;;;18.75;10.32;;;;;;;19.62;70.48;101243.03;5066453;28;20074;-65
2023/07/22 08:14:51;;;;;;;20.38;9.50;;;;;;;19.74;72.08;101237.28;5067117;28;20048;-66
2023/07/22 08:17:17;;;;;;;16.52;10.07;;;;;;;19.86;70.02;101236.88;5065666;28;20075;-69
2023/07/22 08:19:42;;;;;;;17.02;9.10;;;;;;;19.94;69.45;101233.28;5064094;28;20052;-66
2023/07/22 08:22:07;;;;;;;18.65;8.95;;;;;;;19.97;69.81;101235.72;5065957;28;20037;-66
2023/07/22 08:24:33;;;;;;;16.85;8.77;;;;;;;20.13;69.19;101235.81;5061032;28;20067;-65
2023/07/22 08:26:58;;;;;;;14.77;9.18;;;;;;;19.99;67.17;101241.06;5048708;28;20090;-66
2023/07/22 08:29:24;;;;;;;18.17;9.88;;;;;;;20.01;68.48;101237.13;5065908;28;20367;-66
2023/07/22 08:31:49;;;;;;;17.67;10.20;;;;;;;20.12;68.74;101241.50;5062798;28;20474;-66
2023/07/22 08:34:15;;;;;;;15.88;9.20;;;;;;;20.33;66.27;101239.22;5040680;28;20480;-66
2023/07/22 08:36:41;;;;;;;15.00;9.98;;;;;;;20.75;68.37;101241.16;5062123;28;20039;-66
2023/07/22 08:39:07;;;;;;;18.02;8.95;;;;;;;21.24;62.90;101238.47;5059907;28;20036;-67
2023/07/22 08:41:33;;;;;;;14.65;8.50;;;;;;;21.49;62.28;101236.59;5060631;28;20554;-66
2023/07/22 08:44:00;;;;;;;14.13;7.97;;;;;;;21.84;63.68;101234.53;5070202;28;20028;-69
2023/07/22 08:46:30;;;;;;;13.63;7.28;;;;;;;22.17;59.47;101232.59;5054907;28;20075;-65
2023/07/22 08:48:57;;;;;;;15.07;7.85;;;;;;;22.59;60.45;101239.72;5052445;28;20044;-66
2023/07/22 08:51:24;;;;;;;12.15;6.88;;;;;;;22.67;57.72;101239.69;5049357;28;20570;-66
2023/07/22 08:53:50;;;;;;;11.05;7.40;;;;;;;22.86;57.01;101236.47;5053713;28;20159;-66
2023/07/22 08:56:16;;;;;;;13.18;6.45;;;;;;;23.04;56.59;101236.22;5069535;28;20036;-67
2023/07/22 08:58:43;;;;;;;15.02;7.88;;;;;;;23.06;57.19;101239.66;5069851;28;20135;-68
2023/07/22 09:01:09;;;;;;;11.07;6.90;;;;;;;23.38;56.41;101234.94;5068244;28;20048;-66
2023/07/22 09:03:34;;;;;;;11.13;6.30;;;;;;;23.57;57.18;101244.66;5051161;28;20138;-66
2023/07/22 09:06:01;;;;;;;13.38;6.25;;;;;;;23.46;54.65;101231.25;5069279;28;20145;-67
2023/07/22 09:08:26;;;;;;;9.00;5.30;;;;;;;23.65;57.10;101239.94;5069731;28;20032;-66
2023/07/22 09:10:53;;;;;;;12.55;6.32;;;;;;;23.45;52.81;101240.59;5069195;28;20051;-67
2023/07/22 09:13:20;;;;;;;13.68;6.70;;;;;;;23.35;54.62;101240.84;5069850;28;20024;-66
2023/07/22 09:15:47;;;;;;;10.05;6.38;;;;;;;23.38;56.24;101240.47;5069903;28;20454;-67
2023/07/22 09:18:14;;;;;;;11.60;6.78;;;;;;;23.30;56.14;101238.63;5068836;28;20101;-67
2023/07/22 09:20:41;;;;;;;13.43;6.43;;;;;;;23.16;56.42;101231.94;5068990;28;20491;-67
2023/07/22 09:23:07;;;;;;;16.58;6.55;;;;;;;23.16;55.69;101229.16;5069298;28;20022;-66
2023/07/22 09:25:32;;;;;;;10.82;5.90;;;;;;;23.29;55.55;101231.34;5069682;28;20135;-69
2023/07/22 09:28:00;;;;;;;10.88;6.60;;;;;;;23.28;54.73;101226.00;5069454;28;20091;-68
2023/07/22 09:30:32;;;;;;;12.13;6.75;;;;;;;23.25;54.76;101223.56;5069065;28;20077;-65
2023/07/22 09:33:06;;;;;;;;;;;;;;;23.54;57.47;101236.69;5068506;28;20109;-66
2023/07/22 09:35:44;;;;;;;14.27;5.70;;;;;;;23.29;55.66;101219.38;5069486;28;19916;-66
2023/07/22 09:38:09;;;;;;;11.20;5.63;;;;;;;23.20;55.38;101226.91;5068690;28;20048;-66
2023/07/22 09:40:35;;;;;;;13.10;5.28;;;;;;;23.32;56.18;101224.56;5069210;28;20020;-66
2023/07/22 09:43:02;;;;;;;11.40;6.10;;;;;;;23.27;54.26;101221.47;5069658;28;20075;-65
2023/07/22 09:45:30;;;;;;;10.93;6.22;;;;;;;23.22;54.79;101218.38;5069513;28;20064;-66
2023/07/22 09:47:56;;;;;;;11.10;5.95;;;;;;;23.04;54.28;101215.94;5068100;28;20040;-66
2023/07/22 09:50:23;;;;;;;8.73;5.15;;;;;;;23.26;56.34;101228.94;5066327;28;20041;-66
2023/07/22 09:52:51;;;;;;;7.93;4.80;;;;;;;23.54;53.81;101220.03;5067699;28;20036;-67
2023/07/22 09:55:21;;;;;;;7.38;5.05;;;;;;;23.57;54.35;101219.66;5061619;28;20136;-66
2023/07/22 09:57:54;;;;;;;9.13;5.60;;;;;;;23.20;52.47;101212.16;5067297;28;20043;-67
2023/07/22 10:00:19;;;;;;;;;;;;;;;23.28;55.76;101215.75;5069368;28;20059;-66
2023/07/22 10:02:47;;;;;;;11.90;5.55;;;;;;;22.86;54.46;101211.50;5059252;28;20368;-69
2023/07/22 10:05:17;;;;;;;8.55;5.13;;;;;;;22.41;55.30;101210.31;5060110;28;20171;-68
2023/07/22 10:07:54;;;;;;;8.82;4.70;;;;;;;22.30;56.52;101212.63;5048095;28;20483;-67
2023/07/22 10:10:22;;;;;;;8.30;4.75;;;;;;;22.31;57.27;101217.13;5061179;28;20400;-67
2023/07/22 10:12:48;;;;;;;8.63;4.80;;;;;;;22.30;56.53;101212.63;5053562;28;20041;-70
2023/07/22 10:15:15;;;;;;;8.57;4.78;;;;;;;22.33;57.05;101217.78;5058782;28;20051;-67
2023/07/22 10:17:42;;;;;;;10.60;4.85;;;;;;;22.29;56.12;101220.09;5059490;28;20044;-66
2023/07/22 10:20:19;;;;;;;9.40;5.13;;;;;;;22.41;57.53;101212.22;5039450;28;20045;-67
2023/07/22 10:22:46;;;;;;;12.95;4.30;;;;;;;22.72;56.55;101217.81;5055362;28;20443;-67
2023/07/22 10:25:15;;;;;;;9.10;3.90;;;;;;;23.03;56.14;101222.50;5068166;28;20475;-66
2023/07/22 10:27:41;;;;;;;11.18;4.63;;;;;;;23.16;55.40;101215.28;5067896;28;20051;-67
2023/07/22 10:30:14;;;;;;;9.82;4.55;;;;;;;23.16;53.68;101215.28;5068167;28;20033;-67
2023/07/22 10:32:48;;;;;;;8.18;3.97;;;;;;;23.33;55.28;101209.63;5067984;28;20052;-68
2023/07/22 10:35:39;;;;;;;8.95;3.95;;;;;;;23.53;53.96;101209.97;5065938;28;20480;-67
2023/07/22 10:38:13;;;;;;;7.72;3.60;;;;;;;23.35;53.49;101215.84;5067088;28;20040;-68
2023/07/22 10:40:49;;;;;;;6.93;3.22;;;;;;;23.51;55.01;101212.94;5033284;28;20040;-66
2023/07/22 10:43:24;;;;;;;6.82;3.45;;;;;;;23.43;53.18;101210.25;5049990;28;20032;-66
2023/07/22 10:45:51;;;;;;;5.72;3.00;;;;;;;23.20;51.18;101212.16;5050095;28;20494;-66
2023/07/22 10:48:17;;;;;;;9.25;3.53;;;;;;;22.96;51.79;101205.72;5068230;28;20052;-67
2023/07/22 10:50:43;;;;;;;6.40;3.38;;;;;;;22.86;52.47;101200.38;5067154;28;20064;-67
2023/07/22 10:53:28;;;;;;;8.50;2.80;;;;;;;23.08;54.32;101198.72;5068062;28;20044;-67
2023/07/22 10:56:07;;;;;;;11.32;3.03;;;;;;;23.54;53.87;101203.38;5048229;28;20747;-67
2023/07/22 10:58:34;;;;;;;7.07;2.58;;;;;;;23.50;52.37;101202.91;5059383;28;20475;-67
2023/07/22 11:01:30;;;;;;;8.20;2.80;;;;;;;23.54;52.09;101203.38;5050653;28;20094;-66
2023/07/22 11:04:13;;;;;;;4.57;2.22;;;;;;;23.47;49.00;101206.03;5067234;28;20067;-67
2023/07/22 11:06:53;;;;;;;7.93;2.67;;;;;;;23.33;49.26;101209.63;5047189;28;20218;-67
2023/07/22 11:09:27;;;;;;;4.78;2.40;;;;;;;23.47;51.14;101205.19;5047418;28;20037;-68
2023/07/22 11:11:54;;;;;;;6.07;2.33;;;;;;;23.45;50.08;101204.50;5058351;28;20093;-68